Time;durP1;ratioP1;P1;durP2;ratioP2;P2;SDS_P1;SDS_P2;PMS_P1;PMS_P2;Temp;Humidity;BMP_temperature;BMP_pressure;BME280_temperature;BME280_humidity;BME280_pressure;Samples;Min_cycle;Max_cycle;Signal;HPM_P1;HPM_P2
2023/07/28 00:01:02;;;;;;;16.95;5.20;;;;;;;;;;4988224;28;20088;-45
2023/07/28 00:03:28;;;;;;;21.80;5.93;;;;;;;;;;4994013;28;20113;-44
2023/07/28 00:05:53;;;;;;;22.80;4.70;;;;;;;;;;4977372;28;20042;-49
2023/07/28 00:08:18;;;;;;;18.10;5.07;;;;;;;;;;4993002;28;20025;-49
2023/07/28 00:10:44;;;;;;;19.40;4.97;;;;;;;;;;4996491;28;20077;-46
2023/07/28 00:13:09;;;;;;;16.70;5.40;;;;;;;;;;4996126;28;20433;-45
2023/07/28 00:15:35;;;;;;;15.43;4.60;;;;;;;;;;4978048;28;20572;-44
2023/07/28 00:18:01;;;;;;;17.77;5.70;;;;;;;;;;4996681;28;20026;-45
2023/07/28 00:20:27;;;;;;;14.27;4.18;;;;;;;;;;4982631;28;20039;-46
2023/07/28 00:22:53;;;;;;;21.50;5.18;;;;;;;;;;4987723;28;20473;-47
2023/07/28 00:25:19;;;;;;;19.98;4.93;;;;;;;;;;4984267;28;20046;-48
2023/07/28 00:27:44;;;;;;;13.48;4.45;;;;;;;;;;4995232;28;20023;-51
2023/07/28 00:30:10;;;;;;;12.85;4.47;;;;;;;;;;4995338;28;20040;-48
2023/07/28 00:32:36;;;;;;;25.08;5.40;;;;;;;;;;4994972;28;20041;-45
2023/07/28 00:35:02;;;;;;;25.08;5.45;;;;;;;;;;4993225;28;20408;-53
2023/07/28 00:37:27;;;;;;;21.58;6.60;;;;;;;;;;4996452;28;20073;-51
2023/07/28 00:39:52;;;;;;;18.73;4.85;;;;;;;;;;4996292;28;20030;-47
2023/07/28 00:42:18;;;;;;;13.57;4.03;;;;;;;;;;4993419;28;20056;-48
2023/07/28 00:44:43;;;;;;;19.10;4.80;;;;;;;;;;4989184;28;20037;-49
2023/07/28 00:47:09;;;;;;;26.00;5.75;;;;;;;;;;4987332;28;20026;-49
2023/07/28 00:49:34;;;;;;;24.35;5.97;;;;;;;;;;4982477;28;20030;-51
2023/07/28 00:52:00;;;;;;;34.15;6.88;;;;;;;;;;4992212;28;20057;-48
2023/07/28 00:54:25;;;;;;;38.88;7.43;;;;;;;;;;4992969;28;20037;-54
2023/07/28 00:56:51;;;;;;;39.08;7.93;;;;;;;;;;4993738;28;20030;-52
2023/07/28 00:59:17;;;;;;;45.58;7.95;;;;;;;;;;4978409;28;20035;-51
2023/07/28 01:01:42;;;;;;;38.15;7.93;;;;;;;;;;4988513;28;20049;-53
2023/07/28 01:04:08;;;;;;;39.55;7.05;;;;;;;;;;4986303;28;20066;-52
2023/07/28 01:06:47;;;;;;;40.97;8.27;;;;;;;;;;4995807;28;20046;-48
2023/07/28 01:09:16;;;;;;;46.20;8.52;;;;;;;;;;4987579;28;20026;-48
2023/07/28 01:11:54;;;;;;;36.95;8.15;;;;;;;;;;4976437;28;20046;-47
2023/07/28 01:14:19;;;;;;;41.47;8.07;;;;;;;;;;4988404;28;20497;-46
2023/07/28 01:16:45;;;;;;;43.67;9.52;;;;;;;;;;4982264;28;20047;-46
2023/07/28 01:19:12;;;;;;;40.38;8.38;;;;;;;;;;4970978;28;20034;-46
2023/07/28 01:21:39;;;;;;;40.15;8.82;;;;;;;;;;4994115;28;20495;-52
2023/07/28 01:24:20;;;;;;;31.52;8.18;;;;;;;;;;4994000;28;20022;-49
2023/07/28 01:26:47;;;;;;;62.25;9.63;;;;;;;;;;4976356;28;20035;-48
2023/07/28 01:29:14;;;;;;;35.63;8.07;;;;;;;;;;4992548;28;20034;-50
2023/07/28 01:31:40;;;;;;;34.58;7.32;;;;;;;;;;4991838;28;20101;-50
2023/07/28 01:34:05;;;;;;;40.80;8.80;;;;;;;;;;4992206;28;20039;-52
2023/07/28 01:36:31;;;;;;;34.70;8.02;;;;;;;;;;4994481;28;20034;-50
2023/07/28 01:38:56;;;;;;;30.55;6.72;;;;;;;;;;4986994;28;20069;-50
2023/07/28 01:41:22;;;;;;;35.47;7.13;;;;;;;;;;4995686;28;20173;-53
2023/07/28 01:43:47;;;;;;;29.55;6.88;;;;;;;;;;4993985;28;20026;-49
2023/07/28 01:46:12;;;;;;;27.05;6.88;;;;;;;;;;4993154;28;21845;-48
2023/07/28 01:48:38;;;;;;;36.80;7.97;;;;;;;;;;4986571;28;20045;-50
2023/07/28 01:51:03;;;;;;;22.40;6.18;;;;;;;;;;4977394;28;20038;-48
2023/07/28 01:53:29;;;;;;;33.33;6.45;;;;;;;;;;4987085;28;20026;-51
2023/07/28 01:55:54;;;;;;;28.58;6.53;;;;;;;;;;4975124;28;20046;-49
2023/07/28 01:58:19;;;;;;;23.70;6.43;;;;;;;;;;4993006;28;20026;-49
2023/07/28 02:00:46;;;;;;;27.00;6.70;;;;;;;;;;4989583;28;20038;-48
2023/07/28 02:03:11;;;;;;;24.48;6.22;;;;;;;;;;4990580;28;20034;-50
2023/07/28 02:05:37;;;;;;;27.90;5.60;;;;;;;;;;4978617;28;20081;-50
2023/07/28 02:08:02;;;;;;;16.70;6.22;;;;;;;;;;4992123;28;20033;-46
2023/07/28 02:10:29;;;;;;;16.75;4.95;;;;;;;;;;4992394;28;20106;-46
2023/07/28 02:12:54;;;;;;;28.92;5.45;;;;;;;;;;4995760;28;20034;-47
2023/07/28 02:15:20;;;;;;;17.98;4.57;;;;;;;;;;4999040;28;20038;-48
2023/07/28 02:17:45;;;;;;;14.90;4.72;;;;;;;;;;4985641;28;20062;-47
2023/07/28 02:20:12;;;;;;;15.60;4.53;;;;;;;;;;4997209;28;20038;-47
2023/07/28 02:22:39;;;;;;;20.17;3.97;;;;;;;;;;4997963;28;20058;-47
2023/07/28 02:25:05;;;;;;;12.25;3.70;;;;;;;;;;4998704;28;20038;-47
2023/07/28 02:27:30;;;;;;;20.15;5.95;;;;;;;;;;4996456;28;20038;-49
2023/07/28 02:29:56;;;;;;;5.03;2.53;;;;;;;;;;4987215;28;20030;-47
2023/07/28 02:32:21;;;;;;;6.80;2.92;;;;;;;;;;4996102;28;20033;-47
2023/07/28 02:34:47;;;;;;;9.13;3.08;;;;;;;;;;4996640;28;20022;-47
2023/07/28 02:37:14;;;;;;;7.50;2.75;;;;;;;;;;4995864;28;20031;-45
2023/07/28 02:39:39;;;;;;;4.35;2.35;;;;;;;;;;4998758;28;20085;-43
2023/07/28 02:42:06;;;;;;;7.38;2.47;;;;;;;;;;4996354;28;20032;-47
2023/07/28 02:44:31;;;;;;;4.53;2.60;;;;;;;;;;4997270;28;20082;-48
2023/07/28 02:46:57;;;;;;;3.28;2.35;;;;;;;;;;4995223;28;20583;-46
2023/07/28 02:49:22;;;;;;;6.18;2.42;;;;;;;;;;4996405;28;20034;-47
2023/07/28 02:51:47;;;;;;;8.20;2.90;;;;;;;;;;4995788;28;20038;-47
2023/07/28 02:54:13;;;;;;;3.67;2.42;;;;;;;;;;4990932;28;20030;-46
2023/07/28 02:56:38;;;;;;;2.90;2.25;;;;;;;;;;4992375;28;20129;-46
2023/07/28 02:59:04;;;;;;;9.18;2.58;;;;;;;;;;4988735;28;20058;-46
2023/07/28 03:01:33;;;;;;;4.93;2.45;;;;;;;;;;4978858;28;20043;-48
2023/07/28 03:04:02;;;;;;;5.63;2.53;;;;;;;;;;4988931;28;20030;-44
2023/07/28 03:06:28;;;;;;;5.90;2.47;;;;;;;;;;4992075;28;20037;-46
2023/07/28 03:08:53;;;;;;;4.47;2.47;;;;;;;;;;4994889;28;20031;-45
2023/07/28 03:11:19;;;;;;;4.25;2.45;;;;;;;;;;4997329;28;20038;-46
2023/07/28 03:13:44;;;;;;;3.85;2.75;;;;;;;;;;4967114;28;20036;-48
2023/07/28 03:16:10;;;;;;;5.00;2.70;;;;;;;;;;4994797;28;20062;-47
2023/07/28 03:18:35;;;;;;;3.95;2.60;;;;;;;;;;4983450;28;20456;-44
2023/07/28 03:21:01;;;;;;;4.20;2.50;;;;;;;;;;4990912;28;20109;-45
2023/07/28 03:23:26;;;;;;;6.75;3.35;;;;;;;;;;4990905;28;20031;-48
2023/07/28 03:25:52;;;;;;;7.97;2.70;;;;;;;;;;4986225;28;20054;-46
2023/07/28 03:28:17;;;;;;;4.80;2.53;;;;;;;;;;4990725;28;20034;-45
2023/07/28 03:30:42;;;;;;;6.88;2.95;;;;;;;;;;4988728;28;20042;-46
2023/07/28 03:33:08;;;;;;;7.38;2.90;;;;;;;;;;4992958;28;20041;-46
2023/07/28 03:35:33;;;;;;;4.80;3.13;;;;;;;;;;4996911;28;20245;-46
2023/07/28 03:37:59;;;;;;;11.52;3.50;;;;;;;;;;4995813;28;20026;-45
2023/07/28 03:40:24;;;;;;;6.13;2.97;;;;;;;;;;4993868;28;20046;-45
2023/07/28 03:42:50;;;;;;;6.88;3.00;;;;;;;;;;4994796;28;20382;-47
2023/07/28 03:45:16;;;;;;;8.60;3.05;;;;;;;;;;4988118;28;20039;-44
2023/07/28 03:47:42;;;;;;;12.13;3.22;;;;;;;;;;4977934;28;20022;-45
2023/07/28 03:50:07;;;;;;;8.05;3.05;;;;;;;;;;4994515;28;20038;-46
2023/07/28 03:52:33;;;;;;;9.77;3.40;;;;;;;;;;4997190;28;20045;-48
2023/07/28 03:54:58;;;;;;;6.88;3.42;;;;;;;;;;4978140;28;20046;-45
2023/07/28 03:57:23;;;;;;;8.30;3.90;;;;;;;;;;4995287;28;20103;-45
2023/07/28 03:59:49;;;;;;;8.45;3.53;;;;;;;;;;4979405;28;20116;-43
2023/07/28 04:02:14;;;;;;;8.80;3.33;;;;;;;;;;4996097;28;20041;-44
2023/07/28 04:04:40;;;;;;;8.02;3.63;;;;;;;;;;4991868;28;20030;-42
2023/07/28 04:07:06;;;;;;;9.65;3.40;;;;;;;;;;4978572;28;20030;-45
2023/07/28 04:09:31;;;;;;;15.38;3.67;;;;;;;;;;4990225;28;20066;-45
2023/07/28 04:11:56;;;;;;;13.00;3.88;;;;;;;;;;4984725;28;20042;-44
2023/07/28 04:14:22;;;;;;;16.75;4.38;;;;;;;;;;4976160;28;20049;-46
2023/07/28 04:16:47;;;;;;;13.88;4.30;;;;;;;;;;4989756;28;20061;-44
2023/07/28 04:19:13;;;;;;;9.65;3.60;;;;;;;;;;4996434;28;20080;-44
2023/07/28 04:21:39;;;;;;;15.90;3.80;;;;;;;;;;4986014;28;20043;-46
2023/07/28 04:24:09;;;;;;;13.10;3.70;;;;;;;;;;4985862;28;20023;-45
2023/07/28 04:26:34;;;;;;;11.82;3.95;;;;;;;;;;4989933;28;20027;-49
2023/07/28 04:29:00;;;;;;;13.57;3.90;;;;;;;;;;5007234;28;20039;-46
2023/07/28 04:31:25;;;;;;;13.13;4.32;;;;;;;;;;4994420;28;20093;-47
2023/07/28 04:33:51;;;;;;;15.85;4.50;;;;;;;;;;4995479;28;20053;-45
2023/07/28 04:36:16;;;;;;;13.75;3.92;;;;;;;;;;4992364;28;20051;-45
2023/07/28 04:38:42;;;;;;;18.50;4.25;;;;;;;;;;4995612;28;20026;-44
2023/07/28 04:41:07;;;;;;;11.68;4.13;;;;;;;;;;4995389;28;20523;-45
2023/07/28 04:43:32;;;;;;;17.23;4.65;;;;;;;;;;4993070;28;20050;-44
2023/07/28 04:45:58;;;;;;;11.90;4.10;;;;;;;;;;4995684;28;20571;-45
2023/07/28 04:48:23;;;;;;;16.10;4.38;;;;;;;;;;4989722;28;20049;-46
2023/07/28 04:50:49;;;;;;;20.65;5.03;;;;;;;;;;4992368;28;20038;-46
2023/07/28 04:53:14;;;;;;;12.52;4.32;;;;;;;;;;4986566;28;20056;-47
2023/07/28 04:55:40;;;;;;;15.63;4.38;;;;;;;;;;4989879;28;20042;-45
2023/07/28 04:58:05;;;;;;;17.02;4.35;;;;;;;;;;4994697;28;21362;-47
2023/07/28 05:00:31;;;;;;;12.25;4.25;;;;;;;;;;4978723;28;20047;-45
2023/07/28 05:02:56;;;;;;;11.63;3.90;;;;;;;;;;4989101;28;20081;-47
2023/07/28 05:05:22;;;;;;;15.20;4.68;;;;;;;;;;4993046;28;20110;-45
2023/07/28 05:07:47;;;;;;;18.65;3.85;;;;;;;;;;5005428;28;20473;-46
2023/07/28 05:10:13;;;;;;;16.67;4.65;;;;;;;;;;4976027;28;20035;-45
2023/07/28 05:12:38;;;;;;;11.27;3.88;;;;;;;;;;4988284;28;20030;-44
2023/07/28 05:15:05;;;;;;;11.63;4.13;;;;;;;;;;4984393;28;20038;-45
2023/07/28 05:17:30;;;;;;;12.38;4.50;;;;;;;;;;4975554;28;20030;-44
2023/07/28 05:19:56;;;;;;;11.60;3.97;;;;;;;;;;4989983;28;20417;-45
2023/07/28 05:22:21;;;;;;;18.10;4.00;;;;;;;;;;4980863;28;20051;-45
2023/07/28 05:24:47;;;;;;;15.00;4.72;;;;;;;;;;4986334;28;20034;-45
2023/07/28 05:27:12;;;;;;;11.57;4.40;;;;;;;;;;4996450;28;20547;-44
2023/07/28 05:29:38;;;;;;;15.60;4.65;;;;;;;;;;4995618;28;20140;-47
2023/07/28 05:32:04;;;;;;;14.15;4.70;;;;;;;;;;4994320;28;20038;-45
2023/07/28 05:34:30;;;;;;;15.02;3.97;;;;;;;;;;4984006;28;20104;-44
2023/07/28 05:36:55;;;;;;;16.23;3.95;;;;;;;;;;4978731;28;20057;-46
2023/07/28 05:39:21;;;;;;;10.70;4.18;;;;;;;;;;4994970;28;20026;-46
2023/07/28 05:41:46;;;;;;;13.45;3.78;;;;;;;;;;4987637;28;20038;-45
2023/07/28 05:44:12;;;;;;;15.77;4.18;;;;;;;;;;4992788;28;20635;-46
2023/07/28 05:46:37;;;;;;;16.73;3.70;;;;;;;;;;4989861;28;20034;-45
2023/07/28 05:49:03;;;;;;;10.52;4.25;;;;;;;;;;4997594;28;20102;-45
2023/07/28 05:51:28;;;;;;;15.70;4.32;;;;;;;;;;4998756;28;20117;-46
2023/07/28 05:53:54;;;;;;;15.88;3.67;;;;;;;;;;4998550;28;20029;-47
2023/07/28 05:56:20;;;;;;;10.98;3.60;;;;;;;;;;4992961;28;20037;-47
2023/07/28 05:58:49;;;;;;;9.30;4.22;;;;;;;;;;4992824;28;20401;-47
2023/07/28 06:01:15;;;;;;;14.10;3.88;;;;;;;;;;4992903;28;20097;-44
2023/07/28 06:03:40;;;;;;;15.40;3.97;;;;;;;;;;4996313;28;20018;-44
2023/07/28 06:06:05;;;;;;;14.10;4.22;;;;;;;;;;4996180;28;20046;-44
2023/07/28 06:08:31;;;;;;;9.55;4.00;;;;;;;;;;4985481;28;20037;-45
2023/07/28 06:10:56;;;;;;;11.60;3.63;;;;;;;;;;4994756;28;20053;-45
2023/07/28 06:13:22;;;;;;;9.38;4.25;;;;;;;;;;4995085;28;20034;-44
2023/07/28 06:15:47;;;;;;;9.18;3.85;;;;;;;;;;4982556;28;20047;-46
2023/07/28 06:18:13;;;;;;;9.10;3.85;;;;;;;;;;4998456;28;20480;-44
2023/07/28 06:20:42;;;;;;;10.60;3.90;;;;;;;;;;4995638;28;20068;-44
2023/07/28 06:23:08;;;;;;;9.32;3.63;;;;;;;;;;4991220;28;20057;-44
2023/07/28 06:25:33;;;;;;;14.57;4.10;;;;;;;;;;4990311;28;20042;-48
2023/07/28 06:27:59;;;;;;;7.53;3.85;;;;;;;;;;4992464;28;20046;-46
2023/07/28 06:30:24;;;;;;;9.50;3.40;;;;;;;;;;4998195;28;20400;-45
2023/07/28 06:32:50;;;;;;;12.13;4.32;;;;;;;;;;4984418;28;20061;-44
2023/07/28 06:35:15;;;;;;;8.90;3.45;;;;;;;;;;4990060;28;20039;-46
2023/07/28 06:37:41;;;;;;;9.38;3.83;;;;;;;;;;4989007;28;20539;-45
2023/07/28 06:40:09;;;;;;;6.63;3.92;;;;;;;;;;4977812;28;20134;-45
2023/07/28 06:42:35;;;;;;;4.82;3.20;;;;;;;;;;4969445;28;20370;-45
2023/07/28 06:45:02;;;;;;;9.32;3.72;;;;;;;;;;4977345;28;20034;-47
2023/07/28 06:47:27;;;;;;;5.43;3.60;;;;;;;;;;4984967;28;20129;-45
2023/07/28 06:49:53;;;;;;;13.68;3.53;;;;;;;;;;5007809;28;20069;-47
2023/07/28 06:52:18;;;;;;;10.65;3.38;;;;;;;;;;5015781;28;20118;-45
2023/07/28 06:54:43;;;;;;;8.85;3.70;;;;;;;;;;4984748;28;20099;-46
2023/07/28 06:57:09;;;;;;;6.25;3.42;;;;;;;;;;4992616;28;20014;-44
2023/07/28 06:59:34;;;;;;;5.22;2.95;;;;;;;;;;4997516;28;20038;-45
2023/07/28 07:02:00;;;;;;;8.73;3.50;;;;;;;;;;4998061;28;20030;-44
2023/07/28 07:04:25;;;;;;;10.20;3.30;;;;;;;;;;4995420;28;20080;-46
2023/07/28 07:06:51;;;;;;;3.25;2.95;;;;;;;;;;4995139;28;20038;-45
2023/07/28 07:09:16;;;;;;;5.85;2.83;;;;;;;;;;4997981;28;20026;-49
2023/07/28 07:11:42;;;;;;;5.38;3.13;;;;;;;;;;4988737;28;20030;-45
2023/07/28 07:14:07;;;;;;;9.73;3.13;;;;;;;;;;4992502;28;20481;-46
2023/07/28 07:16:34;;;;;;;6.43;3.38;;;;;;;;;;4997169;28;20066;-45
2023/07/28 07:18:59;;;;;;;7.90;3.40;;;;;;;;;;4987660;28;20053;-45
2023/07/28 07:21:26;;;;;;;3.72;3.10;;;;;;;;;;4997812;28;20035;-45
2023/07/28 07:23:51;;;;;;;7.35;2.58;;;;;;;;;;4986675;28;20046;-45
2023/07/28 07:26:17;;;;;;;4.15;2.70;;;;;;;;;;4997609;28;20599;-45
2023/07/28 07:28:42;;;;;;;3.83;2.83;;;;;;;;;;4995444;28;20452;-44
2023/07/28 07:31:16;;;;;;;7.97;2.97;;;;;;;;;;4996788;28;21176;-45
2023/07/28 07:33:42;;;;;;;5.15;3.42;;;;;;;;;;4988128;28;20050;-45
2023/07/28 07:36:18;;;;;;;6.57;3.00;;;;;;;;;;4983994;28;20073;-46
2023/07/28 07:38:46;;;;;;;5.07;3.13;;;;;;;;;;4979952;28;20034;-44
2023/07/28 07:41:21;;;;;;;2.80;2.60;;;;;;;;;;4994670;28;20034;-47
2023/07/28 07:43:48;;;;;;;7.15;3.38;;;;;;;;;;4996862;28;20190;-44
2023/07/28 07:46:14;;;;;;;3.08;2.58;;;;;;;;;;4995737;28;20050;-45
2023/07/28 07:48:40;;;;;;;7.00;3.13;;;;;;;;;;4995461;28;20361;-47
2023/07/28 07:51:06;;;;;;;5.63;3.20;;;;;;;;;;4995798;28;20041;-45
2023/07/28 07:53:31;;;;;;;7.50;3.42;;;;;;;;;;4990796;28;20097;-45
2023/07/28 07:55:57;;;;;;;5.18;3.30;;;;;;;;;;4985330;28;20038;-46
2023/07/28 07:58:22;;;;;;;6.15;3.83;;;;;;;;;;4985591;28;20461;-45
2023/07/28 08:00:48;;;;;;;4.43;3.35;;;;;;;;;;4974343;28;20050;-45
2023/07/28 08:03:13;;;;;;;4.82;3.30;;;;;;;;;;5002088;28;20382;-45
2023/07/28 08:05:38;;;;;;;3.70;2.75;;;;;;;;;;4981493;28;20035;-46
2023/07/28 08:08:06;;;;;;;6.40;3.05;;;;;;;;;;4980018;28;20030;-46
2023/07/28 08:10:32;;;;;;;7.20;3.55;;;;;;;;;;4994985;28;20031;-46
2023/07/28 08:12:59;;;;;;;6.78;3.30;;;;;;;;;;4987292;28;20026;-47
2023/07/28 08:15:25;;;;;;;4.43;2.90;;;;;;;;;;4977784;28;20038;-46
2023/07/28 08:17:51;;;;;;;4.20;2.88;;;;;;;;;;4984737;28;20381;-45
2023/07/28 08:20:16;;;;;;;3.55;2.75;;;;;;;;;;4987464;28;20043;-45
2023/07/28 08:22:42;;;;;;;9.02;5.50;;;;;;;;;;4983985;28;20472;-46
2023/07/28 08:25:08;;;;;;;6.13;3.13;;;;;;;;;;4993844;28;20074;-47
2023/07/28 08:27:33;;;;;;;6.13;3.60;;;;;;;;;;4987587;28;20033;-47
2023/07/28 08:29:59;;;;;;;3.63;2.45;;;;;;;;;;4990152;28;20051;-45
2023/07/28 08:32:24;;;;;;;3.55;2.40;;;;;;;;;;4984181;28;20559;-47
2023/07/28 08:34:50;;;;;;;7.75;3.17;;;;;;;;;;4995660;28;20503;-46
2023/07/28 08:37:15;;;;;;;3.97;2.65;;;;;;;;;;4981313;28;20122;-46
2023/07/28 08:39:40;;;;;;;10.05;2.88;;;;;;;;;;5001499;28;20787;-46
2023/07/28 08:42:06;;;;;;;7.90;3.10;;;;;;;;;;4988495;28;20385;-46
2023/07/28 08:44:33;;;;;;;6.53;3.25;;;;;;;;;;4987658;28;20053;-45
2023/07/28 08:47:00;;;;;;;3.90;2.83;;;;;;;;;;4993252;28;20035;-46
2023/07/28 08:49:26;;;;;;;6.80;3.28;;;;;;;;;;4984946;28;20030;-47
2023/07/28 08:51:52;;;;;;;4.65;3.17;;;;;;;;;;4992131;28;20500;-48
2023/07/28 08:54:18;;;;;;;4.75;3.28;;;;;;;;;;4988091;28;20097;-47
2023/07/28 08:56:43;;;;;;;7.32;5.50;;;;;;;;;;4989939;28;20049;-46
2023/07/28 08:59:09;;;;;;;7.13;3.38;;;;;;;;;;4996532;28;20037;-46
2023/07/28 09:01:43;;;;;;;4.40;3.33;;;;;;;;;;4991633;28;20045;-46
2023/07/28 09:04:11;;;;;;;4.55;2.67;;;;;;;;;;4990658;28;20480;-47
2023/07/28 09:06:37;;;;;;;5.68;3.03;;;;;;;;;;4991636;28;20038;-46
2023/07/28 09:09:06;;;;;;;9.73;3.60;;;;;;;;;;4985121;28;20038;-46
2023/07/28 09:11:32;;;;;;;6.25;4.10;;;;;;;;;;4987767;28;20034;-46
2023/07/28 09:14:00;;;;;;;9.15;3.90;;;;;;;;;;4995874;28;20028;-48
2023/07/28 09:16:26;;;;;;;5.55;3.75;;;;;;;;;;4995152;28;20066;-48
2023/07/28 09:19:05;;;;;;;4.70;2.83;;;;;;;;;;4994847;28;20030;-48
2023/07/28 09:21:30;;;;;;;4.07;3.20;;;;;;;;;;4981740;28;20030;-46
2023/07/28 09:23:55;;;;;;;4.65;3.10;;;;;;;;;;4984581;28;20125;-46
2023/07/28 09:26:21;;;;;;;8.45;2.95;;;;;;;;;;5009554;28;20103;-47
2023/07/28 09:28:46;;;;;;;2.85;2.65;;;;;;;;;;4996316;28;20030;-47
2023/07/28 09:31:14;;;;;;;4.30;3.10;;;;;;;;;;4992106;28;20043;-47
2023/07/28 09:33:42;;;;;;;3.75;2.80;;;;;;;;;;4990658;28;20381;-47
2023/07/28 09:36:10;;;;;;;5.65;2.83;;;;;;;;;;4996827;28;20835;-46
2023/07/28 09:38:40;;;;;;;4.47;2.55;;;;;;;;;;5000007;28;20019;-46
2023/07/28 09:41:09;;;;;;;4.32;3.30;;;;;;;;;;4985941;28;20499;-47
2023/07/28 09:43:38;;;;;;;3.65;2.80;;;;;;;;;;4999979;28;20026;-46
2023/07/28 09:46:06;;;;;;;5.40;3.10;;;;;;;;;;4998175;28;20045;-45
2023/07/28 09:48:36;;;;;;;4.43;2.92;;;;;;;;;;4994555;28;20026;-46
2023/07/28 09:51:19;;;;;;;6.53;2.95;;;;;;;;;;4979255;28;20508;-46
2023/07/28 09:53:52;;;;;;;4.75;3.08;;;;;;;;;;4982706;28;20485;-46
2023/07/28 09:56:22;;;;;;;9.25;2.92;;;;;;;;;;4998865;28;20137;-49
2023/07/28 09:58:53;;;;;;;4.90;3.13;;;;;;;;;;4997253;28;20472;-47
2023/07/28 10:01:19;;;;;;;3.85;3.08;;;;;;;;;;4988122;28;20038;-48
2023/07/28 10:03:45;;;;;;;3.00;2.80;;;;;;;;;;4991823;28;20114;-46
2023/07/28 10:06:11;;;;;;;9.02;2.97;;;;;;;;;;4993971;28;20092;-47
2023/07/28 10:08:38;;;;;;;4.05;2.53;;;;;;;;;;4997914;28;20034;-47
2023/07/28 10:11:04;;;;;;;4.68;2.65;;;;;;;;;;4993703;28;20385;-45
2023/07/28 10:13:41;;;;;;;5.47;2.97;;;;;;;;;;4992464;28;20085;-50
2023/07/28 10:16:08;;;;;;;4.15;2.58;;;;;;;;;;5010061;28;20053;-47
2023/07/28 10:18:34;;;;;;;3.30;2.80;;;;;;;;;;4999293;28;20022;-48
2023/07/28 10:21:08;;;;;;;3.10;2.80;;;;;;;;;;4994745;28;20045;-45
2023/07/28 10:23:37;;;;;;;6.50;4.15;;;;;;;;;;4998369;28;20034;-45
2023/07/28 10:26:05;;;;;;;5.57;2.72;;;;;;;;;;4998842;28;20054;-44
2023/07/28 10:28:38;;;;;;;4.05;2.72;;;;;;;;;;4996666;28;20030;-47
2023/07/28 10:31:05;;;;;;;4.07;2.40;;;;;;;;;;4994135;28;21695;-46
2023/07/28 10:33:33;;;;;;;3.25;2.70;;;;;;;;;;4986081;28;20035;-46
2023/07/28 10:35:59;;;;;;;3.97;2.55;;;;;;;;;;4994176;28;20058;-45
2023/07/28 10:38:32;;;;;;;7.40;3.00;;;;;;;;;;4995975;28;20053;-45
2023/07/28 10:41:15;;;;;;;3.33;2.70;;;;;;;;;;4978985;28;20069;-48
2023/07/28 10:43:42;;;;;;;5.50;3.47;;;;;;;;;;4983614;28;20038;-45
2023/07/28 10:46:09;;;;;;;4.93;2.72;;;;;;;;;;4985040;28;20636;-48
2023/07/28 10:48:46;;;;;;;3.15;2.67;;;;;;;;;;4996354;28;20030;-45
2023/07/28 10:51:20;;;;;;;4.35;2.70;;;;;;;;;;4973226;28;20046;-46
2023/07/28 10:53:49;;;;;;;5.90;3.13;;;;;;;;;;4980929;28;20035;-45
2023/07/28 10:56:14;;;;;;;4.70;2.70;;;;;;;;;;4989461;28;20038;-45
2023/07/28 10:58:40;;;;;;;6.03;2.78;;;;;;;;;;4995458;28;20076;-45
2023/07/28 11:01:05;;;;;;;8.27;2.92;;;;;;;;;;4993175;28;20061;-47
2023/07/28 11:03:30;;;;;;;5.68;2.88;;;;;;;;;;4996740;28;20038;-46
2023/07/28 11:05:56;;;;;;;3.15;2.85;;;;;;;;;;4979498;28;20043;-47
2023/07/28 11:08:23;;;;;;;3.25;2.92;;;;;;;;;;4986289;28;20074;-46
2023/07/28 11:10:48;;;;;;;12.77;4.72;;;;;;;;;;4984182;28;20094;-47
2023/07/28 11:13:14;;;;;;;9.15;4.30;;;;;;;;;;4990689;28;20031;-45
2023/07/28 11:15:39;;;;;;;4.28;2.85;;;;;;;;;;4996897;28;20041;-46
2023/07/28 11:18:05;;;;;;;3.38;2.95;;;;;;;;;;4997273;28;20023;-48
2023/07/28 11:20:30;;;;;;;3.42;2.53;;;;;;;;;;4996131;28;20042;-47
2023/07/28 11:22:56;;;;;;;2.80;2.60;;;;;;;;;;4987347;28;20723;-45
2023/07/28 11:25:22;;;;;;;8.10;4.35;;;;;;;;;;4997206;28;20046;-46
2023/07/28 11:27:48;;;;;;;2.60;2.38;;;;;;;;;;4998333;28;20030;-49
2023/07/28 11:30:16;;;;;;;5.05;2.80;;;;;;;;;;4984308;28;20057;-46
2023/07/28 11:32:46;;;;;;;4.13;2.78;;;;;;;;;;4996235;28;20038;-47
2023/07/28 11:35:14;;;;;;;4.55;2.85;;;;;;;;;;4990309;28;20042;-46
2023/07/28 11:37:41;;;;;;;5.22;3.00;;;;;;;;;;4995136;28;20058;-45
2023/07/28 11:40:08;;;;;;;3.58;2.95;;;;;;;;;;4995547;28;20030;-45
2023/07/28 11:42:41;;;;;;;7.03;3.38;;;;;;;;;;4996757;28;20033;-45
2023/07/28 11:45:07;;;;;;;4.53;3.20;;;;;;;;;;4996940;28;20048;-49
2023/07/28 11:47:33;;;;;;;7.22;3.50;;;;;;;;;;4994347;28;20030;-45
2023/07/28 11:50:00;;;;;;;5.28;3.60;;;;;;;;;;4997336;28;20496;-45
2023/07/28 11:52:36;;;;;;;7.28;3.55;;;;;;;;;;4983973;28;20045;-49
2023/07/28 11:55:04;;;;;;;6.25;3.80;;;;;;;;;;4987731;28;20049;-47
2023/07/28 11:57:33;;;;;;;9.43;3.67;;;;;;;;;;4997830;28;20029;-46
2023/07/28 12:00:02;;;;;;;4.35;3.40;;;;;;;;;;4989301;28;20472;-46
2023/07/28 12:02:29;;;;;;;4.35;3.05;;;;;;;;;;4993029;28;20030;-49
2023/07/28 12:04:57;;;;;;;7.13;3.30;;;;;;;;;;4996251;28;20703;-46
2023/07/28 12:07:33;;;;;;;5.40;2.95;;;;;;;;;;4991721;28;20036;-46
2023/07/28 12:10:08;;;;;;;12.05;3.33;;;;;;;;;;4982757;28;20547;-48
2023/07/28 12:12:41;;;;;;;9.77;3.50;;;;;;;;;;4993235;28;20026;-46
2023/07/28 12:15:27;;;;;;;8.30;3.33;;;;;;;;;;4996276;28;20038;-49
2023/07/28 12:18:14;;;;;;;10.98;3.95;;;;;;;;;;4991475;28;20031;-46
2023/07/28 12:20:51;;;;;;;14.35;4.28;;;;;;;;;;4977799;28;20046;-48
2023/07/28 12:23:21;;;;;;;7.10;3.50;;;;;;;;;;4989539;28;20023;-45
2023/07/28 12:25:48;;;;;;;8.48;3.65;;;;;;;;;;4982322;28;20039;-46
2023/07/28 12:28:13;;;;;;;7.75;3.30;;;;;;;;;;4992697;28;20382;-46
2023/07/28 12:30:39;;;;;;;5.43;3.15;;;;;;;;;;4996822;28;20041;-45
2023/07/28 12:33:05;;;;;;;6.90;3.30;;;;;;;;;;4993300;28;20030;-47
2023/07/28 12:35:34;;;;;;;6.35;3.13;;;;;;;;;;4992872;28;20129;-46
2023/07/28 12:38:04;;;;;;;8.73;3.35;;;;;;;;;;4997215;28;20041;-46
2023/07/28 12:40:30;;;;;;;5.45;3.25;;;;;;;;;;4991070;28;20050;-47
2023/07/28 12:42:57;;;;;;;8.75;3.47;;;;;;;;;;4989356;28;20104;-47
2023/07/28 12:45:25;;;;;;;9.95;3.70;;;;;;;;;;4993722;28;20034;-46
2023/07/28 12:47:54;;;;;;;5.32;3.22;;;;;;;;;;4996535;28;20026;-45
2023/07/28 12:50:23;;;;;;;6.47;3.22;;;;;;;;;;4995743;28;20104;-48
2023/07/28 12:52:49;;;;;;;5.53;2.95;;;;;;;;;;4979728;28;20456;-46
2023/07/28 12:55:16;;;;;;;5.60;2.92;;;;;;;;;;4975941;28;20049;-45
2023/07/28 12:57:41;;;;;;;7.20;3.78;;;;;;;;;;4983881;28;20519;-48
2023/07/28 13:00:12;;;;;;;7.97;3.42;;;;;;;;;;4987978;28;20043;-47
2023/07/28 13:02:41;;;;;;;7.05;3.38;;;;;;;;;;4994632;28;20109;-45
2023/07/28 13:05:07;;;;;;;4.95;2.80;;;;;;;;;;4992023;28;20046;-46
2023/07/28 13:07:32;;;;;;;7.95;3.22;;;;;;;;;;4973834;28;20541;-47
2023/07/28 13:09:58;;;;;;;7.30;3.40;;;;;;;;;;4991092;28;20048;-48
2023/07/28 13:12:23;;;;;;;5.57;3.10;;;;;;;;;;4998193;28;20042;-50
2023/07/28 13:14:48;;;;;;;5.63;3.03;;;;;;;;;;4966786;28;20057;-50
2023/07/28 13:17:15;;;;;;;5.85;2.72;;;;;;;;;;4967702;28;20026;-48
2023/07/28 13:19:40;;;;;;;8.88;2.97;;;;;;;;;;4986653;28;20043;-44
2023/07/28 13:22:06;;;;;;;5.82;3.10;;;;;;;;;;5001705;28;20030;-46
2023/07/28 13:24:32;;;;;;;8.27;2.85;;;;;;;;;;4995163;28;20050;-47
2023/07/28 13:26:58;;;;;;;6.03;2.78;;;;;;;;;;4995461;28;20076;-49
2023/07/28 13:29:23;;;;;;;2.72;2.38;;;;;;;;;;4995017;28;20061;-45
2023/07/28 13:31:49;;;;;;;6.28;2.75;;;;;;;;;;4994152;28;20042;-45
2023/07/28 13:34:14;;;;;;;4.57;2.92;;;;;;;;;;4980578;28;20030;-46
2023/07/28 13:36:40;;;;;;;9.18;2.33;;;;;;;;;;4993164;28;20039;-45
2023/07/28 13:39:06;;;;;;;4.25;2.83;;;;;;;;;;4986945;28;20424;-47
2023/07/28 13:41:31;;;;;;;7.03;2.70;;;;;;;;;;4987120;28;20085;-45
2023/07/28 13:43:57;;;;;;;4.57;2.40;;;;;;;;;;4996421;28;20030;-47
2023/07/28 13:46:22;;;;;;;4.10;2.50;;;;;;;;;;4994522;28;20038;-46
2023/07/28 13:48:48;;;;;;;5.05;2.58;;;;;;;;;;4993696;28;20034;-50
2023/07/28 13:51:13;;;;;;;3.08;2.30;;;;;;;;;;4985042;28;20043;-47
2023/07/28 13:53:38;;;;;;;2.63;2.30;;;;;;;;;;4977315;28;20227;-47
2023/07/28 13:56:04;;;;;;;11.70;2.50;;;;;;;;;;4983532;28;20038;-45
2023/07/28 13:58:29;;;;;;;3.75;2.58;;;;;;;;;;4994633;28;20026;-46
2023/07/28 14:00:55;;;;;;;5.63;2.80;;;;;;;;;;4992400;28;20034;-50
2023/07/28 14:03:20;;;;;;;2.92;2.40;;;;;;;;;;4990856;28;20022;-45
2023/07/28 14:05:46;;;;;;;2.47;2.28;;;;;;;;;;4994008;28;20046;-45
2023/07/28 14:08:12;;;;;;;3.25;2.35;;;;;;;;;;4990631;28;20023;-45
2023/07/28 14:10:38;;;;;;;2.95;2.67;;;;;;;;;;4998053;28;20039;-47
2023/07/28 14:13:04;;;;;;;3.42;2.65;;;;;;;;;;4997495;28;20026;-48
2023/07/28 14:15:29;;;;;;;11.77;2.72;;;;;;;;;;4995865;28;20080;-48
2023/07/28 14:17:54;;;;;;;2.78;2.45;;;;;;;;;;4999705;28;20029;-48
2023/07/28 14:20:20;;;;;;;3.65;2.40;;;;;;;;;;4995698;28;20030;-45
2023/07/28 14:22:45;;;;;;;2.40;2.20;;;;;;;;;;4996727;28;20037;-45
2023/07/28 14:25:11;;;;;;;2.50;2.30;;;;;;;;;;4997107;28;20034;-45
2023/07/28 14:27:36;;;;;;;2.70;2.50;;;;;;;;;;4996465;28;20034;-47
2023/07/28 14:30:02;;;;;;;2.95;2.30;;;;;;;;;;4997868;28;20117;-45
2023/07/28 14:32:27;;;;;;;5.25;2.58;;;;;;;;;;4996099;28;20396;-45
2023/07/28 14:34:53;;;;;;;2.83;2.22;;;;;;;;;;4991737;28;20030;-45